Time;durP1;ratioP1;P1;durP2;ratioP2;P2;SDS_P1;SDS_P2;PMS_P1;PMS_P2;Temp;Humidity;BMP_temperature;BMP_pressure;BME280_temperature;BME280_humidity;BME280_pressure;Samples;Min_cycle;Max_cycle;Signal;HPM_P1;HPM_P2
2021/07/11 00:01:06;;;;;;;70.15;23.88;;;14.90;99.90;;;;;;8359383;28;20064;-64
2021/07/11 00:05:09;;;;;;;67.28;23.80;;;14.80;99.90;;;;;;8358468;28;20025;-64
2021/07/11 00:09:09;;;;;;;71.25;25.70;;;14.80;99.90;;;;;;8358273;28;20409;-64
2021/07/11 00:13:10;;;;;;;70.78;24.50;;;14.80;99.90;;;;;;8359206;28;20032;-64
2021/07/11 00:17:10;;;;;;;71.30;24.67;;;14.80;99.90;;;;;;8359178;28;20056;-64
2021/07/11 00:21:11;;;;;;;71.05;24.20;;;14.80;99.90;;;;;;8358024;28;20029;-64
2021/07/11 00:25:13;;;;;;;69.40;24.00;;;14.80;99.90;;;;;;8341518;28;20499;-64
2021/07/11 00:29:14;;;;;;;68.93;24.52;;;14.70;99.90;;;;;;8357553;28;20356;-64
2021/07/11 00:33:14;;;;;;;73.97;25.17;;;14.80;99.90;;;;;;8359086;28;20222;-64
2021/07/11 00:37:15;;;;;;;71.20;25.00;;;14.70;99.90;;;;;;8358438;28;20032;-64
2021/07/11 00:41:16;;;;;;;74.55;26.17;;;14.70;99.90;;;;;;8358682;28;20029;-64
2021/07/11 00:45:16;;;;;;;66.97;23.70;;;14.70;99.90;;;;;;8357976;28;20028;-64
2021/07/11 00:49:17;;;;;;;67.50;23.55;;;14.60;99.90;;;;;;8357222;28;20036;-64
2021/07/11 00:53:17;;;;;;;69.55;24.30;;;14.70;99.90;;;;;;8358439;28;20033;-64
2021/07/11 00:57:18;;;;;;;67.93;24.08;;;14.60;99.90;;;;;;8358438;28;20043;-64
2021/07/11 01:01:54;;;;;;;72.28;24.88;;;14.60;99.90;;;;;;8357585;28;20487;-64
2021/07/11 01:05:55;;;;;;;71.03;25.23;;;14.50;99.90;;;;;;8298903;28;20048;-64
2021/07/11 01:10:04;;;;;;;66.90;23.73;;;14.50;99.90;;;;;;8325192;28;20034;-64
2021/07/11 01:14:05;;;;;;;68.68;23.85;;;14.50;99.90;;;;;;8325438;28;20029;-64
2021/07/11 01:18:07;;;;;;;70.50;25.27;;;14.40;99.90;;;;;;8324244;28;20037;-64
2021/07/11 01:22:12;;;;;;;69.65;24.30;;;14.40;99.90;;;;;;8326180;28;20033;-64
2021/07/11 01:26:14;;;;;;;70.85;24.20;;;14.50;99.90;;;;;;8358323;28;20104;-64
2021/07/11 01:30:16;;;;;;;77.10;24.60;;;14.40;99.90;;;;;;8357979;28;20032;-64
2021/07/11 01:34:18;;;;;;;75.15;24.95;;;14.50;99.90;;;;;;8357931;28;20029;-64
2021/07/11 01:38:20;;;;;;;73.82;24.92;;;14.40;99.90;;;;;;8357826;28;20028;-64
2021/07/11 01:42:21;;;;;;;72.35;24.55;;;14.40;99.90;;;;;;8356909;28;20037;-64
2021/07/11 01:46:23;;;;;;;73.07;24.90;;;14.40;99.90;;;;;;8356772;28;20025;-64
2021/07/11 01:50:24;;;;;;;76.63;25.33;;;14.40;99.90;;;;;;8357476;28;20029;-64
2021/07/11 01:54:28;;;;;;;75.45;25.40;;;14.40;99.90;;;;;;8357620;28;20649;-64
2021/07/11 01:58:29;;;;;;;73.55;24.70;;;14.30;99.90;;;;;;8357240;28;20644;-64
2021/07/11 02:02:29;;;;;;;73.88;24.50;;;14.20;99.90;;;;;;8357334;28;20040;-64
2021/07/11 02:06:30;;;;;;;70.45;24.23;;;14.30;99.90;;;;;;8328611;28;20551;-64
2021/07/11 02:10:30;;;;;;;69.82;24.35;;;14.20;99.90;;;;;;8330145;28;20037;-64
2021/07/11 02:14:35;;;;;;;68.75;24.45;;;14.20;99.90;;;;;;8330332;28;20642;-64
2021/07/11 02:18:39;;;;;;;67.13;23.92;;;14.40;99.90;;;;;;8328366;28;20036;-64
2021/07/11 02:22:42;;;;;;;66.95;23.40;;;14.40;99.90;;;;;;8335171;28;20025;-64
2021/07/11 02:26:44;;;;;;;64.95;23.35;;;14.40;99.90;;;;;;8362688;28;20494;-64
2021/07/11 02:30:52;;;;;;;67.22;23.45;;;14.30;99.90;;;;;;8362463;28;20036;-64
2021/07/11 02:34:53;;;;;;;68.38;23.42;;;14.20;99.90;;;;;;8361970;28;20021;-64
2021/07/11 02:39:06;;;;;;;71.53;24.75;;;14.20;99.90;;;;;;8362027;28;20024;-64
2021/07/11 02:43:10;;;;;;;70.72;24.25;;;14.40;99.90;;;;;;8362197;28;20025;-64
2021/07/11 02:47:15;;;;;;;69.72;24.00;;;14.40;99.90;;;;;;8361912;28;20033;-64
2021/07/11 02:51:19;;;;;;;73.88;24.85;;;14.30;99.90;;;;;;8362037;28;20410;-64
2021/07/11 02:55:26;;;;;;;75.30;25.10;;;14.20;99.90;;;;;;8362090;28;20029;-64
2021/07/11 02:59:27;;;;;;;71.20;24.33;;;14.20;99.90;;;;;;8361522;28;20484;-64
2021/07/11 03:03:28;;;;;;;71.05;24.23;;;14.00;99.90;;;;;;8361283;28;20033;-64
2021/07/11 03:07:30;;;;;;;72.47;24.83;;;14.00;99.90;;;;;;8361327;28;20036;-64
2021/07/11 03:11:32;;;;;;;70.55;23.85;;;14.10;99.90;;;;;;8361383;28;20076;-64
2021/07/11 03:15:33;;;;;;;70.85;24.67;;;14.10;99.90;;;;;;8360326;28;20036;-64
2021/07/11 03:19:39;;;;;;;72.05;24.55;;;14.20;99.90;;;;;;8360760;28;20040;-64
2021/07/11 03:23:41;;;;;;;72.60;24.73;;;14.20;99.90;;;;;;8360835;28;20398;-64
2021/07/11 03:27:42;;;;;;;71.20;24.98;;;14.20;99.90;;;;;;8360665;28;20068;-64
2021/07/11 03:31:43;;;;;;;74.97;25.92;;;14.30;99.90;;;;;;8360835;28;20029;-65
2021/07/11 03:35:56;;;;;;;70.85;24.40;;;14.20;99.90;;;;;;8360557;28;20032;-64
2021/07/11 03:39:58;;;;;;;71.88;24.55;;;14.20;99.90;;;;;;8360562;28;20387;-64
2021/07/11 03:44:00;;;;;;;70.63;24.23;;;14.40;99.90;;;;;;8360325;28;20032;-64
2021/07/11 03:48:06;;;;;;;74.43;25.35;;;14.40;99.90;;;;;;8360017;28;20063;-64
2021/07/11 03:52:10;;;;;;;71.15;24.25;;;14.30;99.90;;;;;;8358802;28;20045;-64
2021/07/11 03:56:11;;;;;;;67.53;23.25;;;14.30;99.90;;;;;;8358474;28;20029;-64
2021/07/11 04:00:15;;;;;;;70.68;23.42;;;14.40;99.90;;;;;;8357845;28;20065;-65
2021/07/11 04:04:19;;;;;;;69.63;23.88;;;14.50;99.90;;;;;;8354689;28;20110;-64
2021/07/11 04:08:20;;;;;;;71.60;24.52;;;14.50;99.90;;;;;;8357325;28;20029;-65
2021/07/11 04:12:21;;;;;;;72.55;24.13;;;14.50;99.90;;;;;;8356534;28;20033;-65
2021/07/11 04:16:29;;;;;;;74.40;24.63;;;14.60;99.90;;;;;;8353669;28;20120;-64
2021/07/11 04:20:31;;;;;;;75.70;24.98;;;14.60;99.90;;;;;;8351171;28;20033;-64
2021/07/11 04:24:35;;;;;;;80.53;26.90;;;14.70;99.90;;;;;;8354422;28;20033;-64
2021/07/11 04:28:39;;;;;;;77.10;25.25;;;14.70;99.90;;;;;;8352276;28;20154;-64
2021/07/11 04:32:40;;;;;;;81.10;26.23;;;14.70;99.90;;;;;;8354986;28;20095;-66
2021/07/11 04:36:40;;;;;;;75.00;24.67;;;14.70;99.90;;;;;;8356855;28;20049;-66
2021/07/11 04:40:41;;;;;;;74.65;24.33;;;14.80;99.90;;;;;;8354516;28;20028;-65
2021/07/11 04:44:44;;;;;;;72.43;23.73;;;14.80;99.90;;;;;;8354289;28;20548;-65
2021/07/11 04:48:44;;;;;;;75.28;24.63;;;14.80;99.90;;;;;;8357052;28;20025;-66
2021/07/11 04:52:46;;;;;;;77.82;25.42;;;14.80;99.90;;;;;;8353199;28;20065;-65
2021/07/11 04:56:47;;;;;;;75.13;25.25;;;14.90;99.90;;;;;;8333491;28;20028;-61
2021/07/11 05:00:47;;;;;;;81.38;27.40;;;14.90;99.90;;;;;;8324642;28;20038;-60
2021/07/11 05:04:48;;;;;;;78.45;26.15;;;15.00;99.90;;;;;;8356101;28;20029;-58
2021/07/11 05:08:49;;;;;;;77.70;26.65;;;15.10;99.90;;;;;;8357140;28;20033;-59
2021/07/11 05:12:49;;;;;;;77.18;24.98;;;15.00;99.90;;;;;;8356183;28;20033;-60
2021/07/11 05:16:50;;;;;;;78.82;26.45;;;15.00;99.90;;;;;;8356753;28;20167;-60
2021/07/11 05:20:50;;;;;;;83.53;27.17;;;14.90;99.90;;;;;;8356172;28;20032;-61
2021/07/11 05:24:51;;;;;;;81.82;27.08;;;14.90;99.90;;;;;;8357855;28;20040;-59
2021/07/11 05:28:52;;;;;;;80.85;26.33;;;14.90;99.90;;;;;;8352822;28;20020;-60
2021/07/11 05:32:52;;;;;;;79.15;26.38;;;14.80;99.90;;;;;;8343288;28;20044;-61
2021/07/11 05:36:53;;;;;;;78.43;25.85;;;14.90;99.90;;;;;;8347493;28;20044;-61
2021/07/11 05:40:53;;;;;;;75.20;25.00;;;15.10;99.90;;;;;;8342289;28;20037;-60
2021/07/11 05:44:54;;;;;;;84.30;26.58;;;15.20;99.90;;;;;;8363055;28;20047;-61
2021/07/11 05:48:55;;;;;;;80.15;25.95;;;15.30;99.90;;;;;;8363453;28;20372;-61
2021/07/11 05:52:55;;;;;;;80.57;25.98;;;15.50;99.90;;;;;;8363189;28;20036;-64
2021/07/11 05:56:56;;;;;;;83.10;26.80;;;15.60;99.90;;;;;;8361740;28;20090;-64
2021/07/11 06:00:57;;;;;;;72.30;23.88;;;15.80;99.90;;;;;;8360041;28;20021;-65
2021/07/11 06:04:57;;;;;;;73.78;23.48;;;16.00;99.90;;;;;;8342921;28;20120;-64
2021/07/11 06:08:58;;;;;;;32.20;13.30;;;16.20;99.90;;;;;;8351284;28;20087;-65
2021/07/11 06:12:58;;;;;;;46.75;15.68;;;16.20;99.90;;;;;;8355975;28;20031;-60
2021/07/11 06:17:00;;;;;;;16.00;7.88;;;16.30;99.90;;;;;;8361628;28;20060;-60
2021/07/11 06:21:01;;;;;;;80.43;26.17;;;16.30;99.90;;;;;;8362583;28;20091;-61
2021/07/11 06:25:06;;;;;;;79.00;26.13;;;16.30;99.90;;;;;;8350793;28;20021;-60
2021/07/11 06:29:07;;;;;;;82.93;26.85;;;16.30;99.90;;;;;;8345077;28;20025;-60
2021/07/11 06:33:07;;;;;;;81.78;26.17;;;16.40;99.90;;;;;;8344797;28;20411;-60
2021/07/11 06:37:08;;;;;;;80.85;25.50;;;16.50;99.90;;;;;;8349983;28;20088;-61
2021/07/11 06:41:08;;;;;;;83.45;26.25;;;16.60;99.90;;;;;;8361172;28;20502;-59
2021/07/11 06:45:11;;;;;;;85.65;26.95;;;16.80;99.90;;;;;;8347365;28;20029;-60
2021/07/11 06:49:11;;;;;;;63.55;20.45;;;17.00;99.90;;;;;;8343651;28;20029;-59
2021/07/11 06:53:12;;;;;;;84.50;26.90;;;17.00;99.90;;;;;;8343798;28;20040;-61
2021/07/11 06:57:13;;;;;;;47.65;16.25;;;17.40;99.90;;;;;;8361230;28;20056;-60
2021/07/11 07:01:13;;;;;;;74.43;24.25;;;17.50;99.90;;;;;;8351061;28;20025;-58
2021/07/11 07:05:14;;;;;;;77.65;25.25;;;17.60;99.90;;;;;;8345501;28;20022;-59
2021/07/11 07:09:14;;;;;;;70.07;23.05;;;17.70;99.90;;;;;;8358784;28;20098;-60
2021/07/11 07:13:15;;;;;;;81.95;26.15;;;17.70;99.90;;;;;;8357953;28;20033;-60
2021/07/11 07:17:16;;;;;;;83.28;27.17;;;17.70;99.90;;;;;;8353279;28;20041;-60
2021/07/11 07:21:16;;;;;;;77.63;24.90;;;17.70;99.90;;;;;;8357689;28;20510;-60
2021/07/11 07:25:18;;;;;;;32.95;12.20;;;17.80;99.90;;;;;;8357331;28;20112;-61
2021/07/11 07:29:19;;;;;;;77.03;24.05;;;17.80;99.90;;;;;;8358491;28;20078;-60
2021/07/11 07:33:19;;;;;;;68.95;22.65;;;18.00;99.90;;;;;;8353893;28;20033;-60
2021/07/11 07:37:20;;;;;;;70.50;22.35;;;18.10;99.90;;;;;;8356764;28;20155;-62
2021/07/11 07:41:20;;;;;;;29.52;10.63;;;18.50;99.90;;;;;;8355136;28;20479;-61
2021/07/11 07:45:21;;;;;;;40.55;13.73;;;19.00;99.90;;;;;;8359347;28;20394;-59
2021/07/11 07:49:22;;;;;;;25.30;9.77;;;18.70;99.90;;;;;;8356223;28;20024;-59
2021/07/11 07:53:22;;;;;;;45.72;15.80;;;18.60;99.90;;;;;;8357096;28;20073;-60
2021/07/11 07:57:23;;;;;;;80.53;25.83;;;18.60;99.90;;;;;;8354499;28;20028;-62
2021/07/11 08:01:24;;;;;;;43.78;15.10;;;18.70;99.90;;;;;;8358305;28;20036;-62
2021/07/11 08:05:24;;;;;;;16.33;7.28;;;18.60;99.90;;;;;;8352151;28;20032;-60
2021/07/11 08:09:25;;;;;;;28.45;11.60;;;18.80;99.90;;;;;;8354173;28;20094;-57
2021/07/11 08:13:26;;;;;;;39.85;14.20;;;19.40;99.90;;;;;;8339384;28;20041;-61
2021/07/11 08:17:27;;;;;;;13.70;10.77;;;19.50;99.90;;;;;;8348497;28;20403;-62
2021/07/11 08:21:29;;;;;;;22.83;8.90;;;19.30;99.90;;;;;;8344764;28;20596;-61
2021/07/11 08:25:29;;;;;;;20.00;11.93;;;19.10;99.90;;;;;;8339731;28;20029;-61
2021/07/11 08:29:31;;;;;;;10.60;9.55;;;19.20;99.90;;;;;;8339756;28;20571;-67
2021/07/11 08:33:31;;;;;;;10.65;9.75;;;20.00;99.90;;;;;;8345757;28;20029;-67
2021/07/11 08:37:32;;;;;;;11.50;10.38;;;20.70;99.90;;;;;;8325730;28;20095;-67
2021/07/11 08:41:35;;;;;;;11.55;9.70;;;21.00;99.90;;;;;;8334861;28;20114;-68
2021/07/11 08:45:36;;;;;;;12.98;11.77;;;21.00;99.90;;;;;;8354802;28;20033;-67
2021/07/11 08:49:37;;;;;;;11.27;10.27;;;20.90;99.90;;;;;;8357183;28;20033;-67
2021/07/11 08:53:39;;;;;;;11.82;10.80;;;20.80;99.90;;;;;;8351931;28;20060;-67
2021/07/11 08:57:40;;;;;;;12.50;11.38;;;21.10;99.90;;;;;;8352695;28;20030;-67
2021/07/11 09:01:40;;;;;;;13.38;12.23;;;21.00;99.90;;;;;;8356695;28;20406;-67
2021/07/11 09:05:41;;;;;;;10.40;9.45;;;20.70;99.90;;;;;;8349413;28;20021;-67
2021/07/11 09:09:41;;;;;;;12.65;7.38;;;20.00;99.90;;;;;;8348511;28;20072;-67
2021/07/11 09:13:42;;;;;;;11.63;10.40;;;19.90;99.90;;;;;;8345662;28;20075;-68
2021/07/11 09:17:52;;;;;;;11.90;7.75;;;20.30;99.90;;;;;;8356433;28;20090;-69
2021/07/11 09:21:55;;;;;;;10.35;7.57;;;20.80;99.90;;;;;;8342465;28;20036;-68
2021/07/11 09:26:04;;;;;;;9.73;8.73;;;21.30;99.90;;;;;;8356023;28;20029;-67
2021/07/11 09:30:07;;;;;;;10.40;8.50;;;21.20;99.90;;;;;;8348162;28;20124;-68
2021/07/11 09:34:08;;;;;;;11.30;8.25;;;21.50;99.90;;;;;;8345873;28;20037;-70
2021/07/11 09:38:09;;;;;;;14.32;7.28;;;21.60;99.90;;;;;;8341955;28;20059;-70
2021/07/11 09:42:09;;;;;;;9.70;8.63;;;21.90;99.90;;;;;;8331152;28;20167;-69
2021/07/11 09:46:12;;;;;;;9.88;8.45;;;22.10;99.90;;;;;;8359136;28;20117;-62
2021/07/11 09:50:20;;;;;;;11.07;8.00;;;22.00;99.90;;;;;;8357622;28;20029;-62
2021/07/11 09:54:21;;;;;;;11.13;9.25;;;21.80;99.90;;;;;;8359937;28;20024;-61
2021/07/11 09:58:22;;;;;;;14.65;11.70;;;21.80;99.90;;;;;;8346342;28;20036;-62
2021/07/11 10:02:22;;;;;;;14.07;9.75;;;22.00;99.90;;;;;;8324196;28;20038;-62
2021/07/11 10:06:23;;;;;;;12.80;10.00;;;21.70;99.90;;;;;;8352061;28;20060;-62
2021/07/11 10:10:26;;;;;;;11.20;9.32;;;21.20;99.90;;;;;;8363232;28;20412;-62
2021/07/11 10:14:26;;;;;;;10.15;9.13;;;20.80;99.90;;;;;;8360675;28;20048;-61
2021/07/11 10:18:29;;;;;;;7.72;7.00;;;21.40;99.90;;;;;;8362847;28;20029;-62
2021/07/11 10:22:39;;;;;;;10.63;9.63;;;21.80;99.90;;;;;;8362552;28;20071;-61
2021/07/11 10:26:40;;;;;;;;;;;21.50;99.90;;;;;;8362460;28;20044;-61
2021/07/11 10:30:46;;;;;;;10.77;9.93;;;21.90;99.90;;;;;;8362654;28;20386;-62
2021/07/11 10:34:46;;;;;;;10.50;7.00;;;22.60;99.90;;;;;;8359212;28;20029;-61
2021/07/11 10:38:55;;;;;;;12.57;7.60;;;22.40;99.90;;;;;;8360454;28;20084;-62
2021/07/11 10:42:56;;;;;;;16.55;9.98;;;22.90;99.90;;;;;;8351516;28;20496;-63
2021/07/11 10:46:59;;;;;;;13.30;7.60;;;22.60;99.90;;;;;;8355456;28;20032;-62
2021/07/11 10:51:01;;;;;;;11.75;10.70;;;23.30;99.90;;;;;;8361209;28;20377;-68
2021/07/11 10:55:06;;;;;;;9.57;8.60;;;23.70;99.90;;;;;;8351887;28;20025;-69
2021/07/11 10:59:06;;;;;;;11.30;10.60;;;23.80;99.90;;;;;;8355178;28;20244;-70
2021/07/11 11:03:20;;;;;;;12.73;11.75;;;24.60;99.90;;;;;;8374999;28;20398;-69
2021/07/11 11:07:20;;;;;;;10.07;9.25;;;24.90;99.90;;;;;;8357200;28;20570;-69
2021/07/11 11:11:29;;;;;;;11.15;10.23;;;24.60;99.90;;;;;;8356403;28;20096;-68
2021/07/11 11:15:44;;;;;;;11.75;10.95;;;24.80;99.90;;;;;;8350467;28;20033;-69
2021/07/11 11:19:46;;;;;;;10.05;9.35;;;24.60;99.90;;;;;;8358889;28;20394;-69
2021/07/11 11:23:48;;;;;;;10.90;10.13;;;23.90;99.90;;;;;;8360846;28;20025;-68
2021/07/11 11:27:54;;;;;;;10.30;9.60;;;23.80;99.90;;;;;;8349553;28;20032;-68
2021/07/11 11:31:54;;;;;;;10.73;10.02;;;24.40;99.90;;;;;;8330769;28;20025;-69
2021/07/11 11:35:55;;;;;;;12.73;11.77;;;25.30;99.90;;;;;;8349506;28;20772;-71
2021/07/11 11:40:05;;;;;;;11.80;10.93;;;25.40;99.90;;;;;;8336405;28;20037;-68
2021/07/11 11:44:16;;;;;;;12.98;12.10;;;25.10;99.90;;;;;;8350075;28;20116;-68
2021/07/11 11:48:20;;;;;;;11.18;10.35;;;25.00;99.90;;;;;;8347843;28;20022;-69
2021/07/11 11:52:21;;;;;;;12.00;11.10;;;24.80;99.90;;;;;;8356252;28;20163;-69
2021/07/11 11:56:22;;;;;;;22.70;21.25;;;24.40;99.90;;;;;;8351128;28;20498;-68
2021/07/11 12:00:30;;;;;;;22.00;20.60;;;22.70;99.90;;;;;;8507937;27;20518;-62
2021/07/11 12:04:31;;;;;;;17.02;15.93;;;20.90;99.90;;;;;;8486720;28;20024;-61
2021/07/11 12:08:41;;;;;;;18.45;17.27;;;19.90;99.90;;;;;;8487045;28;20032;-62
2021/07/11 12:12:41;;;;;;;13.30;12.05;;;19.10;99.90;;;;;;8486595;27;20442;-62
2021/07/11 12:16:43;;;;;;;17.77;9.38;;;18.70;99.90;;;;;;8486979;28;20024;-61
2021/07/11 12:20:52;;;;;;;81.90;24.88;;;18.70;99.90;;;;;;8486861;28;20024;-69
2021/07/11 12:25:24;;;;;;;87.40;25.67;;;18.90;99.90;;;;;;8483428;28;20163;-69
2021/07/11 12:29:33;;;;;;;8.52;6.13;;;19.90;99.90;;;;;;8480966;27;20016;-69
2021/07/11 12:33:34;;;;;;;8.48;7.80;;;21.80;99.90;;;;;;8482865;28;20024;-67
2021/07/11 12:37:35;;;;;;;9.75;9.05;;;21.80;99.90;;;;;;8486719;28;20031;-68
2021/07/11 12:41:36;;;;;;;11.90;11.00;;;23.40;99.90;;;;;;8486612;27;20043;-68
2021/07/11 12:45:37;;;;;;;12.77;11.98;;;22.90;99.90;;;;;;8486346;27;20046;-68
2021/07/11 12:49:48;;;;;;;25.67;24.17;;;22.80;99.90;;;;;;8484621;27;20055;-69
2021/07/11 12:54:00;;;;;;;18.60;17.48;;;22.80;99.90;;;;;;8485000;28;20084;-69
2021/07/11 12:58:15;;;;;;;16.35;15.35;;;22.90;99.90;;;;;;8482115;28;20094;-69
2021/07/11 13:02:19;;;;;;;21.77;20.40;;;23.00;99.90;;;;;;8484556;28;20076;-69
2021/07/11 13:06:35;;;;;;;25.23;23.77;;;24.00;99.90;;;;;;8474642;27;20084;-68
2021/07/11 13:10:43;;;;;;;16.50;15.50;;;24.90;99.90;;;;;;8443740;28;20512;-69
2021/07/11 13:14:53;;;;;;;12.15;11.35;;;24.90;99.90;;;;;;8462222;28;20031;-71
2021/07/11 13:18:54;;;;;;;10.50;9.90;;;23.80;99.90;;;;;;8462364;28;20035;-62
2021/07/11 13:22:55;;;;;;;11.55;10.75;;;23.70;99.90;;;;;;8462305;28;20028;-62
2021/07/11 13:26:55;;;;;;;10.75;10.05;;;24.40;99.90;;;;;;8460754;28;20039;-63
2021/07/11 13:30:56;;;;;;;13.73;12.82;;;24.80;99.90;;;;;;8462341;28;20153;-62
2021/07/11 13:34:57;;;;;;;14.77;13.77;;;24.40;99.90;;;;;;8460106;28;20054;-62
2021/07/11 13:38:57;;;;;;;31.00;28.65;;;24.10;99.90;;;;;;8456941;28;20031;-61
2021/07/11 13:42:58;;;;;;;39.72;37.60;;;23.70;99.90;;;;;;8459398;28;20106;-62
2021/07/11 13:46:59;;;;;;;31.92;30.10;;;23.50;99.90;;;;;;8460833;28;20024;-61
2021/07/11 13:51:00;;;;;;;23.70;22.25;;;23.50;99.90;;;;;;8461041;28;20036;-61
2021/07/11 13:55:00;;;;;;;64.35;60.90;;;23.90;99.90;;;;;;8455552;28;20031;-62
2021/07/11 13:59:01;;;;;;;75.95;71.95;;;25.00;99.90;;;;;;8450501;28;20164;-61
2021/07/11 14:03:02;;;;;;;40.38;38.13;;;25.20;99.90;;;;;;8457536;28;20038;-61
2021/07/11 14:07:02;;;;;;;18.85;17.67;;;25.60;99.90;;;;;;8456876;28;20028;-61
2021/07/11 14:11:03;;;;;;;23.00;21.13;;;25.40;99.90;;;;;;8456315;28;20066;-62
2021/07/11 14:15:05;;;;;;;16.15;15.15;;;25.00;99.90;;;;;;8459857;28;20019;-61
2021/07/11 14:19:06;;;;;;;14.57;13.68;;;24.90;99.90;;;;;;8457946;28;20032;-61
2021/07/11 14:23:08;;;;;;;14.27;13.27;;;24.70;99.90;;;;;;8458695;28;20450;-62
2021/07/11 14:27:10;;;;;;;14.27;13.30;;;24.50;99.90;;;;;;8458623;28;20034;-62
2021/07/11 14:31:10;;;;;;;14.32;13.35;;;24.50;99.90;;;;;;8460230;28;20432;-69
2021/07/11 14:35:13;;;;;;;12.50;11.70;;;24.60;99.90;;;;;;8459919;28;20036;-68
2021/07/11 14:39:14;;;;;;;15.50;14.55;;;24.90;99.90;;;;;;8456252;28;20028;-69
2021/07/11 14:43:14;;;;;;;17.60;16.48;;;26.70;99.90;;;;;;8459323;28;20115;-68
2021/07/11 14:47:16;;;;;;;35.10;33.13;;;27.60;99.90;;;;;;8459258;28;20554;-69
2021/07/11 14:51:16;;;;;;;38.35;36.28;;;28.20;99.90;;;;;;8458806;28;20039;-68
2021/07/11 14:55:17;;;;;;;18.45;17.38;;;28.20;99.90;;;;;;8457410;28;20569;-69
2021/07/11 14:59:17;;;;;;;50.25;47.60;;;27.80;99.90;;;;;;8457932;28;20638;-62
2021/07/11 15:03:18;;;;;;;21.20;19.90;;;26.90;99.90;;;;;;8453777;28;20055;-62
2021/07/11 15:07:18;;;;;;;136.55;129.48;;;26.10;99.90;;;;;;8458781;28;20051;-62
2021/07/11 15:11:19;;;;;;;23.75;22.35;;;26.60;99.90;;;;;;8454104;28;20489;-62
2021/07/11 15:15:19;;;;;;;18.13;16.98;;;27.10;99.90;;;;;;8458388;28;20031;-62
2021/07/11 15:19:20;;;;;;;20.48;19.27;;;26.90;99.90;;;;;;8454873;28;20028;-62
2021/07/11 15:23:21;;;;;;;22.60;21.20;;;27.90;99.90;;;;;;8456079;28;20039;-62
2021/07/11 15:27:22;;;;;;;98.75;93.30;;;29.60;94.90;;;;;;8456021;28;20479;-62
2021/07/11 15:31:23;;;;;;;152.13;143.90;;;33.00;91.90;;;;;;8452391;28;20112;-66
2021/07/11 15:35:23;;;;;;;202.27;191.73;;;36.80;70.10;;;;;;8457445;28;20027;-64
2021/07/11 15:39:24;;;;;;;220.38;208.02;;;38.00;56.00;;;;;;8456442;28;20405;-64
2021/07/11 15:43:24;;;;;;;188.35;178.27;;;36.40;55.20;;;;;;8457107;28;20534;-63
2021/07/11 15:47:25;;;;;;;29.92;28.35;;;34.40;58.30;;;;;;8456381;28;20035;-65
2021/07/11 15:51:25;;;;;;;57.45;54.28;;;31.30;62.70;;;;;;8456431;28;20548;-65
2021/07/11 15:55:26;;;;;;;203.88;193.15;;;30.60;69.10;;;;;;8457320;28;20071;-66
2021/07/11 15:59:27;;;;;;;235.30;222.68;;;32.00;67.10;;;;;;8456328;28;20382;-66
2021/07/11 16:03:27;;;;;;;222.07;210.43;;;32.70;63.40;;;;;;8456453;28;20023;-66
2021/07/11 16:07:28;;;;;;;164.20;155.70;;;33.50;61.50;;;;;;8457034;28;20024;-63
2021/07/11 16:11:29;;;;;;;117.25;111.25;;;37.10;55.00;;;;;;8458024;22;20050;-68
2021/07/11 16:15:30;;;;;;;85.43;80.72;;;38.80;51.20;;;;;;8321052;28;20025;-67
2021/07/11 16:19:31;;;;;;;229.05;216.77;;;40.40;47.00;;;;;;8311769;28;20213;-67
2021/07/11 16:23:31;;;;;;;207.15;196.63;;;41.20;42.00;;;;;;8286160;28;20033;-66
2021/07/11 16:27:33;;;;;;;32.75;30.98;;;37.40;46.10;;;;;;8291035;28;20091;-66
2021/07/11 16:31:33;;;;;;;26.10;24.58;;;33.60;52.80;;;;;;8290324;28;20026;-66
2021/07/11 16:35:35;;;;;;;10.18;9.48;;;31.00;58.70;;;;;;8281137;28;20095;-66
2021/07/11 16:39:36;;;;;;;12.07;11.00;;;29.20;63.70;;;;;;8269947;28;20034;-66
2021/07/11 16:43:36;;;;;;;8.50;7.70;;;28.20;67.60;;;;;;8288870;28;20552;-66
2021/07/11 16:47:37;;;;;;;9.32;7.80;;;27.80;69.20;;;;;;8297597;28;20460;-66
2021/07/11 16:51:38;;;;;;;10.43;9.63;;;27.00;76.40;;;;;;8277672;28;20706;-68
2021/07/11 16:55:38;;;;;;;14.95;14.05;;;29.80;70.10;;;;;;8295146;28;20037;-66
2021/07/11 16:59:39;;;;;;;9.02;7.57;;;33.80;57.20;;;;;;8297251;28;20030;-65
2021/07/11 17:03:40;;;;;;;9.45;8.60;;;35.10;53.20;;;;;;8294262;28;20037;-67
2021/07/11 17:07:41;;;;;;;14.60;13.60;;;35.70;52.80;;;;;;8289811;28;20046;-66
2021/07/11 17:11:42;;;;;;;14.60;13.68;;;38.30;48.00;;;;;;8272483;28;20088;-67
2021/07/11 17:15:42;;;;;;;175.82;166.25;;;39.20;46.80;;;;;;8269496;28;20267;-66
2021/07/11 17:19:43;;;;;;;16.27;15.13;;;39.10;45.10;;;;;;8286435;28;20052;-66
2021/07/11 17:23:44;;;;;;;19.23;18.02;;;38.70;44.90;;;;;;8292283;28;20053;-66
2021/07/11 17:27:47;;;;;;;87.10;82.35;;;38.20;46.40;;;;;;8289960;28;20586;-66
2021/07/11 17:31:48;;;;;;;29.35;27.60;;;35.80;48.60;;;;;;8285465;28;20435;-66
2021/07/11 17:35:49;;;;;;;26.10;24.40;;;33.20;54.30;;;;;;8290746;28;20107;-65
2021/07/11 17:39:49;;;;;;;17.83;16.63;;;30.40;59.10;;;;;;8291435;28;20525;-65
2021/07/11 17:43:50;;;;;;;16.63;8.07;;;27.80;68.90;;;;;;8273255;28;20084;-65
2021/07/11 17:47:50;;;;;;;75.20;27.13;;;25.90;75.50;;;;;;8282264;28;20046;-65
2021/07/11 17:51:51;;;;;;;72.25;26.20;;;25.20;79.80;;;;;;8277042;28;20275;-65
2021/07/11 17:55:53;;;;;;;74.68;23.88;;;24.30;86.90;;;;;;8289104;28;20061;-66
2021/07/11 17:59:53;;;;;;;20.85;19.40;;;23.50;90.10;;;;;;8285531;28;20033;-65
2021/07/11 18:03:54;;;;;;;12.82;8.43;;;23.60;91.00;;;;;;8284148;28;20544;-66
2021/07/11 18:07:57;;;;;;;57.72;18.75;;;23.00;93.50;;;;;;8286152;28;20041;-66
2021/07/11 18:11:57;;;;;;;83.18;25.88;;;22.60;95.80;;;;;;8278453;28;20045;-66
2021/07/11 18:15:58;;;;;;;77.00;25.23;;;22.90;97.20;;;;;;8278902;28;20040;-66
2021/07/11 18:19:59;;;;;;;69.93;24.40;;;24.00;95.10;;;;;;8291696;28;20146;-66
2021/07/11 18:23:59;;;;;;;;;;;23.70;97.30;;;;;;8291966;28;20508;-70
2021/07/11 18:28:00;;;;;;;;;;;22.80;98.50;;;;;;8292433;28;19909;-70
2021/07/11 18:32:00;;;;;;;;;;;22.00;99.90;;;;;;8292699;28;19905;-69
2021/07/11 18:36:01;;;;;;;;;;;21.50;99.90;;;;;;8291733;28;19956;-71
2021/07/11 18:40:02;;;;;;;;;;;21.10;99.90;;;;;;8292579;28;19916;-71
2021/07/11 18:44:03;;;;;;;;;;;20.70;99.90;;;;;;8274906;28;19917;-70
2021/07/11 18:48:04;;;;;;;63.73;20.60;;;20.30;99.90;;;;;;8289130;28;20460;-70
2021/07/11 18:52:08;;;;;;;25.58;23.85;;;19.90;99.90;;;;;;8273869;28;20034;-72
2021/07/11 18:56:08;;;;;;;13.55;12.65;;;19.70;99.90;;;;;;8292306;28;20424;-73
2021/07/11 19:00:12;;;;;;;30.67;15.65;;;19.50;99.90;;;;;;8272957;28;20037;-73
2021/07/11 19:04:13;;;;;;;75.10;24.42;;;19.20;99.90;;;;;;8290472;28;20026;-73
2021/07/11 19:08:13;;;;;;;80.88;26.25;;;19.10;99.90;;;;;;8270123;28;20519;-65
2021/07/11 19:12:14;;;;;;;80.03;26.00;;;18.80;99.90;;;;;;8268634;28;20040;-65
2021/07/11 19:16:15;;;;;;;82.10;26.58;;;18.60;99.90;;;;;;8251045;28;20108;-64
2021/07/11 19:20:16;;;;;;;75.85;25.05;;;18.50;99.90;;;;;;8287212;28;20045;-65
2021/07/11 19:24:17;;;;;;;81.50;25.73;;;18.50;99.90;;;;;;8267187;28;20038;-64
2021/07/11 19:28:17;;;;;;;73.10;24.95;;;18.20;99.90;;;;;;8277049;28;20057;-64
2021/07/11 19:32:18;;;;;;;82.03;26.33;;;17.90;99.90;;;;;;8279787;28;20037;-66
2021/07/11 19:36:19;;;;;;;73.43;24.42;;;17.70;99.90;;;;;;8283607;28;20038;-65
2021/07/11 19:40:24;;;;;;;83.40;25.77;;;17.60;99.90;;;;;;8279107;28;20040;-65
2021/07/11 19:44:26;;;;;;;85.07;26.63;;;17.60;99.90;;;;;;8273592;28;20033;-65
2021/07/11 19:48:28;;;;;;;80.28;24.98;;;17.60;99.90;;;;;;8272578;28;20620;-65
2021/07/11 19:52:29;;;;;;;72.13;24.33;;;17.60;99.90;;;;;;8286499;28;20168;-65
2021/07/11 19:56:29;;;;;;;68.07;23.83;;;17.40;99.90;;;;;;8288488;28;20034;-65
2021/07/11 20:00:30;;;;;;;67.13;23.75;;;17.00;99.90;;;;;;8271779;28;20084;-65
2021/07/11 20:04:31;;;;;;;66.35;23.23;;;16.80;99.90;;;;;;8271016;28;20728;-66
2021/07/11 20:08:31;;;;;;;71.82;25.33;;;16.60;99.90;;;;;;8275539;28;20033;-65
2021/07/11 20:12:32;;;;;;;68.20;23.85;;;16.50;99.90;;;;;;8253030;28;20045;-65
2021/07/11 20:16:33;;;;;;;70.82;24.73;;;16.40;99.90;;;;;;8270684;28;20038;-65
2021/07/11 20:20:33;;;;;;;72.03;25.58;;;16.30;99.90;;;;;;8261488;28;20065;-65
2021/07/11 20:24:34;;;;;;;68.68;25.10;;;16.30;99.90;;;;;;8282768;28;20172;-65
2021/07/11 20:28:35;;;;;;;64.72;23.55;;;16.30;99.90;;;;;;8266666;28;20029;-65
2021/07/11 20:32:36;;;;;;;63.17;23.13;;;16.20;99.90;;;;;;8286378;28;20103;-65